עמוד ראשי
METAR-TAF:

METAR-TAF

שדות תעופה :

Sharurah, ערב הסעודית

קו רוחב: 17-28N, קו אורך: 047-07E, גובה: 720מטר

תצפית מזג אוויר נוכחית

הדו"ח נערך לפני 43דקות, בשעה 20:00 UTC
רוח רגועה
טמפרטורת 33 צלסיוס
לחות 10%
לחץ 1009 hPa
ראות 10 קילומטר או יותר
ללא עננים שבסיסם נמוך מ 5000 רגל או קומולונימבוס

METAR: OESH 132000Z 00000KT CAVOK 33/M02 Q1009 NOSIG

זמן: 23:43 (20:43 UTC)

תחזית

הדו"ח נערך לפני 9 שעות ו 43דקות, בשעה 11:00 UTC
תחזית בתוקף מ 13 ב 12 UTC עד 14 ב 18 UTC
רוח 10קשר מכיוון מזרח
ראות 10 קילומטר או יותר
ללא עננים שבסיסם נמוך מ 5000 רגל או קומולונימבוס
יעשה מ
13 ב 22 UTC עד 14 ב 00 UTC
רוח 10קשר מכיוון דרום
יעשה מ
14 ב 10 UTC עד 14 ב 12 UTC
רוח 8קשר מכיוון צפון/צפון-מערב
ראות 10 קילומטר או יותר
מעט עננים בגובה 4000רגל

TAF: OESH 131100Z 1312/1418 09010KT CAVOK BECMG 1322/1400 19010KT BECMG 1410/1412 33008KT 9999 FEW040

תצפיות ותחזיות מזג אוויר לגבי יותר מ- 4,000 שדות תעופה ברחבי העולם. דוחות METAR ו- TAF.

התחנות הזמינות מסומנות בנקודות צהובות ואדומות על גבי המפה.

העבר את העכבר לנקודה הצבעונית על מנת לראות את שם התחנה.

לאחר מכן, לחץ כדי לראות את תוכן ואת תחזיות מזג האוויר.

כדי לשנות את המפה: לחץ על הכפתורים הירוקים עם הפלוס השחור כדי להתקרב; על הכפתור הירוק עם המקף כדי להתרחק; או בחיצים הירוקים למפות סמוכות.


METAR-TAF: